createdAt,value
2019-06-15T00:01:58.017Z,25.06
2019-06-15T00:04:28.470Z,25.05
2019-06-15T00:06:58.966Z,24.76
2019-06-15T00:09:29.411Z,24.68
2019-06-15T00:11:59.899Z,24.89
2019-06-15T00:14:30.411Z,24.85
2019-06-15T00:17:00.856Z,24.68
2019-06-15T00:19:31.464Z,24.75
2019-06-15T00:22:01.982Z,24.80
2019-06-15T00:24:35.611Z,24.83
2019-06-15T00:27:04.875Z,24.69
2019-06-15T00:29:35.333Z,24.71
2019-06-15T00:32:05.807Z,24.61
2019-06-15T00:34:36.251Z,24.60
2019-06-15T00:37:06.728Z,24.41
2019-06-15T00:39:37.183Z,24.44
2019-06-15T00:42:07.669Z,24.54
2019-06-15T00:44:38.194Z,24.51
2019-06-15T00:47:08.713Z,24.26
2019-06-15T00:49:39.196Z,24.39
2019-06-15T00:52:09.709Z,24.39
2019-06-15T00:54:49.984Z,24.39
2019-06-15T00:57:12.360Z,24.28
2019-06-15T00:59:42.863Z,24.12
2019-06-15T01:02:13.324Z,24.13
2019-06-15T01:04:43.803Z,24.20
2019-06-15T01:07:14.286Z,24.15
2019-06-15T01:09:44.735Z,24.25
2019-06-15T01:12:15.231Z,24.07
2019-06-15T01:14:45.673Z,24.14
2019-06-15T01:17:16.124Z,24.14
2019-06-15T01:19:46.610Z,24.11
2019-06-15T01:22:17.052Z,24.16
2019-06-15T01:24:47.562Z,24.14
2019-06-15T01:27:18.008Z,24.11
2019-06-15T01:29:48.471Z,24.27
2019-06-15T01:32:19.051Z,24.26
2019-06-15T01:34:49.503Z,24.34
2019-06-15T01:37:19.993Z,24.37
2019-06-15T01:39:50.484Z,24.43
2019-06-15T01:42:21.014Z,24.44
2019-06-15T01:44:51.578Z,24.34
2019-06-15T01:47:22.199Z,24.39
2019-06-15T01:49:52.728Z,24.31
2019-06-15T01:52:23.201Z,24.39
2019-06-15T01:54:53.647Z,24.33
2019-06-15T01:57:24.147Z,24.33
2019-06-15T01:59:54.599Z,24.30
2019-06-15T02:02:25.162Z,24.11
2019-06-15T02:04:55.689Z,24.16
2019-06-15T02:07:26.201Z,24.19
2019-06-15T02:09:56.690Z,24.25
2019-06-15T02:12:27.153Z,24.19
2019-06-15T02:14:57.648Z,24.10
2019-06-15T02:17:28.108Z,24.24
2019-06-15T02:19:58.600Z,24.16
2019-06-15T02:22:29.109Z,24.14
2019-06-15T02:24:59.536Z,24.04
2019-06-15T02:27:29.985Z,24.08
2019-06-15T02:30:00.544Z,24.07
2019-06-15T02:32:31.010Z,24.15
2019-06-15T02:35:01.552Z,24.08
2019-06-15T02:37:31.995Z,24.02
2019-06-15T02:40:02.508Z,24.00
2019-06-15T02:42:32.997Z,23.89
2019-06-15T02:45:03.449Z,23.95
2019-06-15T02:47:33.933Z,23.99
2019-06-15T02:50:04.690Z,23.79
2019-06-15T02:52:35.276Z,23.88
2019-06-15T02:55:06.008Z,23.86
2019-06-15T02:57:36.779Z,23.93
2019-06-15T03:00:07.914Z,23.89
2019-06-15T03:02:38.489Z,23.81
2019-06-15T03:05:09.140Z,23.84
2019-06-15T03:07:39.941Z,23.80
2019-06-15T03:10:10.821Z,23.90
2019-06-15T03:12:41.513Z,23.78
2019-06-15T03:15:12.188Z,23.77
2019-06-15T03:17:42.675Z,23.80
2019-06-15T03:20:13.328Z,23.90
2019-06-15T03:22:43.814Z,23.96
2019-06-15T03:25:14.565Z,23.99
2019-06-15T03:27:45.043Z,23.92
2019-06-15T03:30:16.657Z,23.75
2019-06-15T03:32:47.142Z,23.72
2019-06-15T03:35:19.416Z,23.71
2019-06-15T03:37:50.022Z,23.61
2019-06-15T03:40:20.513Z,23.74
2019-06-15T03:42:50.975Z,23.77
2019-06-15T03:45:21.559Z,23.87
2019-06-15T03:47:52.147Z,23.74
2019-06-15T03:50:23.078Z,23.83
2019-06-15T03:52:53.596Z,23.96
2019-06-15T03:55:24.043Z,24.03
2019-06-15T03:57:54.496Z,23.97
2019-06-15T04:00:47.786Z,23.91
2019-06-15T04:03:18.336Z,24.05
2019-06-15T04:05:48.894Z,24.15
2019-06-15T04:08:19.400Z,24.18
2019-06-15T04:10:49.860Z,24.19
2019-06-15T04:13:20.344Z,24.19
2019-06-15T04:15:50.818Z,24.34
2019-06-15T04:18:21.314Z,24.28
2019-06-15T04:20:51.771Z,24.39
2019-06-15T04:23:22.276Z,24.25
2019-06-15T04:25:52.774Z,24.39
2019-06-15T04:28:23.260Z,24.65
2019-06-15T04:30:53.763Z,24.62
2019-06-15T04:33:24.245Z,24.88
2019-06-15T04:35:54.700Z,25.06
2019-06-15T04:38:25.195Z,25.16
2019-06-15T04:40:55.650Z,25.27
2019-06-15T04:43:26.163Z,25.34
2019-06-15T04:45:56.819Z,25.40
2019-06-15T04:48:27.339Z,25.48
2019-06-15T04:50:57.832Z,25.43
2019-06-15T04:53:28.405Z,25.61
2019-06-15T04:55:58.967Z,25.80
2019-06-15T04:58:29.461Z,26.07
2019-06-15T05:01:00.122Z,26.31
2019-06-15T05:03:30.619Z,26.53
2019-06-15T05:06:01.127Z,26.46
2019-06-15T05:08:31.688Z,26.57
2019-06-15T05:11:03.677Z,26.82
2019-06-15T05:13:34.328Z,26.84
2019-06-15T05:16:05.016Z,26.75
2019-06-15T05:18:35.505Z,26.78
2019-06-15T05:21:06.258Z,26.73
2019-06-15T05:23:36.750Z,26.72
2019-06-15T05:26:07.284Z,26.55
2019-06-15T05:28:37.782Z,26.70
2019-06-15T05:31:08.273Z,27.17
2019-06-15T05:33:38.732Z,27.44
2019-06-15T05:36:09.248Z,27.81
2019-06-15T05:38:39.720Z,28.23
2019-06-15T05:41:10.191Z,28.60
2019-06-15T05:43:40.708Z,28.93
2019-06-15T05:46:11.150Z,29.21
2019-06-15T05:48:41.641Z,29.54
2019-06-15T05:51:12.282Z,29.54
2019-06-15T05:53:42.729Z,29.49
2019-06-15T05:56:13.273Z,29.79
2019-06-15T05:58:43.740Z,29.87
2019-06-15T06:01:14.197Z,30.08
2019-06-15T06:03:44.713Z,30.06
2019-06-15T06:06:15.143Z,30.29
2019-06-15T06:08:45.688Z,30.13
2019-06-15T06:11:16.141Z,30.41
2019-06-15T06:13:46.657Z,30.43
2019-06-15T06:16:17.138Z,30.35
2019-06-15T06:18:47.620Z,30.70
2019-06-15T06:21:18.082Z,30.63
2019-06-15T06:23:48.624Z,30.69
2019-06-15T06:26:19.109Z,30.88
2019-06-15T06:28:57.295Z,30.75
2019-06-15T06:31:21.780Z,30.67
2019-06-15T06:33:52.237Z,30.18
2019-06-15T06:36:22.764Z,30.30
2019-06-15T06:38:53.252Z,30.35
2019-06-15T06:41:23.755Z,30.51
2019-06-15T06:43:54.222Z,30.72
2019-06-15T06:46:24.735Z,30.56
2019-06-15T06:48:55.289Z,30.38
2019-06-15T06:51:25.796Z,30.51
2019-06-15T06:53:56.249Z,30.71
2019-06-15T06:56:26.775Z,30.93
2019-06-15T06:58:57.283Z,31.20
2019-06-15T07:01:27.787Z,31.50
2019-06-15T07:03:58.250Z,31.50
2019-06-15T07:06:28.768Z,31.60
2019-06-15T07:08:59.227Z,31.57
2019-06-15T07:11:29.727Z,31.75
2019-06-15T07:14:00.168Z,31.75
2019-06-15T07:16:30.685Z,31.87
2019-06-15T07:19:01.198Z,32.14
2019-06-15T07:21:31.729Z,32.54
2019-06-15T07:24:02.179Z,32.62
2019-06-15T07:26:32.681Z,32.56
2019-06-15T07:29:03.248Z,32.50
2019-06-15T07:31:33.713Z,32.40
2019-06-15T07:34:04.282Z,32.55
2019-06-15T07:36:34.773Z,32.28
2019-06-15T07:39:07.174Z,32.42
2019-06-15T07:41:37.634Z,32.28
2019-06-15T07:44:08.192Z,32.43
2019-06-15T07:46:38.692Z,32.74
2019-06-15T07:49:09.193Z,32.86
2019-06-15T07:51:39.694Z,33.25
2019-06-15T07:54:10.203Z,33.35
2019-06-15T07:56:40.741Z,33.39
2019-06-15T07:59:11.204Z,33.68
2019-06-15T08:01:41.711Z,33.75
2019-06-15T08:04:12.168Z,33.72
2019-06-15T08:06:42.707Z,34.08
2019-06-15T08:09:13.145Z,34.11
2019-06-15T08:11:45.842Z,34.03
2019-06-15T08:14:16.135Z,33.90
2019-06-15T08:16:46.626Z,33.45
2019-06-15T08:19:17.115Z,32.85
2019-06-15T08:21:47.588Z,32.94
2019-06-15T08:24:18.058Z,32.80
2019-06-15T08:26:48.679Z,32.96
2019-06-15T08:29:19.149Z,32.90
2019-06-15T08:31:49.663Z,33.03
2019-06-15T08:34:20.131Z,33.08
2019-06-15T08:36:50.637Z,32.86
2019-06-15T08:39:21.092Z,33.04
2019-06-15T08:41:51.608Z,33.08
2019-06-15T08:44:22.132Z,33.16
2019-06-15T08:46:52.558Z,33.18
2019-06-15T08:49:23.060Z,33.34
2019-06-15T08:51:53.521Z,33.52
2019-06-15T08:54:24.069Z,33.57
2019-06-15T08:56:54.560Z,33.43
2019-06-15T08:59:25.032Z,33.59
2019-06-15T09:01:55.530Z,33.31
2019-06-15T09:04:25.990Z,33.32
2019-06-15T09:06:56.487Z,33.35
2019-06-15T09:09:26.995Z,33.42
2019-06-15T09:11:57.442Z,33.39
2019-06-15T09:14:27.893Z,33.18
2019-06-15T09:16:58.424Z,33.15
2019-06-15T09:19:28.935Z,33.38
2019-06-15T09:21:59.392Z,33.47
2019-06-15T09:24:29.921Z,33.69
2019-06-15T09:27:00.375Z,33.90
2019-06-15T09:29:30.931Z,33.94
2019-06-15T09:32:01.397Z,33.95
2019-06-15T09:34:31.972Z,34.04
2019-06-15T09:37:02.472Z,33.77
2019-06-15T09:39:33.033Z,33.93
2019-06-15T09:42:03.537Z,33.97
2019-06-15T09:44:34.001Z,34.26
2019-06-15T09:47:04.652Z,34.26
2019-06-15T09:49:35.114Z,34.16
2019-06-15T09:52:05.620Z,34.07
2019-06-15T09:54:36.104Z,34.44
2019-06-15T09:57:07.495Z,34.28
2019-06-15T09:59:38.543Z,34.40
2019-06-15T10:02:09.075Z,34.25
2019-06-15T10:04:39.540Z,33.81
2019-06-15T10:07:10.037Z,34.08
2019-06-15T10:09:40.609Z,33.99
2019-06-15T10:12:11.197Z,34.13
2019-06-15T10:14:41.655Z,34.24
2019-06-15T10:17:12.192Z,34.33
2019-06-15T10:19:42.688Z,34.00
2019-06-15T10:22:13.203Z,33.91
2019-06-15T10:24:43.700Z,33.78
2019-06-15T10:27:14.213Z,33.99
2019-06-15T10:29:44.667Z,34.00
2019-06-15T10:32:15.184Z,34.23
2019-06-15T10:34:45.710Z,34.25
2019-06-15T10:37:16.207Z,34.33
2019-06-15T10:39:46.721Z,34.45
2019-06-15T10:42:17.176Z,34.58
2019-06-15T10:44:47.691Z,34.62
2019-06-15T10:47:18.151Z,34.45
2019-06-15T10:49:48.671Z,34.47
2019-06-15T10:52:19.166Z,34.49
2019-06-15T10:54:49.680Z,34.39
2019-06-15T10:57:20.138Z,34.36
2019-06-15T10:59:57.181Z,34.36
2019-06-15T11:02:22.879Z,34.24
2019-06-15T11:04:53.472Z,34.45
2019-06-15T11:07:23.927Z,34.48
2019-06-15T11:09:54.527Z,34.43
2019-06-15T11:12:24.985Z,34.05
2019-06-15T11:14:55.484Z,34.32
2019-06-15T11:17:26.047Z,34.19
2019-06-15T11:19:56.560Z,34.08
2019-06-15T11:22:26.999Z,34.62
2019-06-15T11:24:57.493Z,34.19
2019-06-15T11:27:27.953Z,34.27
2019-06-15T11:30:12.576Z,34.65
2019-06-15T11:32:30.743Z,34.74
2019-06-15T11:35:01.399Z,34.64
2019-06-15T11:37:32.307Z,34.97
2019-06-15T11:40:02.816Z,35.02
2019-06-15T11:42:34.270Z,35.21
2019-06-15T11:45:04.949Z,35.24
2019-06-15T11:47:35.393Z,35.16
2019-06-15T11:50:07.364Z,35.13
2019-06-15T11:52:37.895Z,35.41
2019-06-15T11:55:08.551Z,35.22
2019-06-15T11:57:39.053Z,35.05
2019-06-15T12:00:09.785Z,35.01
2019-06-15T12:02:40.328Z,35.03
2019-06-15T12:05:10.902Z,34.99
2019-06-15T12:07:41.504Z,34.97
2019-06-15T12:10:12.212Z,34.69
2019-06-15T12:12:42.725Z,34.70
2019-06-15T12:15:14.702Z,34.62
2019-06-15T12:17:45.160Z,34.43
2019-06-15T12:20:15.869Z,34.39
2019-06-15T12:22:46.321Z,34.55
2019-06-15T12:25:17.048Z,34.54
2019-06-15T12:27:47.496Z,34.67
2019-06-15T12:30:22.238Z,34.64
2019-06-15T12:32:52.702Z,34.69
2019-06-15T12:35:23.244Z,34.52
2019-06-15T12:37:53.707Z,34.35
2019-06-15T12:40:24.164Z,34.52
2019-06-15T12:42:54.687Z,34.49
2019-06-15T12:45:25.240Z,34.41
2019-06-15T12:47:55.954Z,34.64
2019-06-15T12:50:26.537Z,34.79
2019-06-15T12:52:57.015Z,34.50
2019-06-15T12:55:27.468Z,34.65
2019-06-15T12:57:57.965Z,34.53
2019-06-15T13:00:34.096Z,34.32
2019-06-15T13:03:04.706Z,34.35
2019-06-15T13:05:35.342Z,34.32
2019-06-15T13:08:06.345Z,34.43
2019-06-15T13:10:36.813Z,33.68
2019-06-15T13:13:07.299Z,34.39
2019-06-15T13:15:37.802Z,34.53
2019-06-15T13:18:08.253Z,34.46
2019-06-15T13:20:38.756Z,34.54
2019-06-15T13:23:09.214Z,34.38
2019-06-15T13:25:39.774Z,34.37
2019-06-15T13:28:10.311Z,34.25
2019-06-15T13:30:40.810Z,34.41
2019-06-15T13:33:11.341Z,34.32
2019-06-15T13:35:41.799Z,34.42
2019-06-15T13:38:12.316Z,34.43
2019-06-15T13:40:42.845Z,34.40
2019-06-15T13:43:13.380Z,34.35
2019-06-15T13:45:43.828Z,34.44
2019-06-15T13:48:14.291Z,34.50
2019-06-15T13:50:44.799Z,34.59
2019-06-15T13:53:15.258Z,34.57
2019-06-15T13:55:45.748Z,34.35
2019-06-15T13:58:16.209Z,34.59
2019-06-15T14:00:46.803Z,34.63
2019-06-15T14:03:17.292Z,34.40
2019-06-15T14:05:47.748Z,34.42
2019-06-15T14:08:18.357Z,34.57
2019-06-15T14:10:48.869Z,34.53
2019-06-15T14:13:19.320Z,34.52
2019-06-15T14:15:49.837Z,34.51
2019-06-15T14:18:20.297Z,34.32
2019-06-15T14:20:50.814Z,34.30
2019-06-15T14:23:21.268Z,34.16
2019-06-15T14:25:51.797Z,34.18
2019-06-15T14:28:22.300Z,34.20
2019-06-15T14:30:52.760Z,34.21
2019-06-15T14:33:23.563Z,34.31
2019-06-15T14:35:54.048Z,34.21
2019-06-15T14:38:24.551Z,34.24
2019-06-15T14:40:55.005Z,34.17
2019-06-15T14:43:25.453Z,34.11
2019-06-15T14:45:59.830Z,34.22
2019-06-15T14:48:28.148Z,33.93
2019-06-15T14:50:58.608Z,34.13
2019-06-15T14:53:29.150Z,34.10
2019-06-15T14:55:59.613Z,34.16
2019-06-15T14:58:30.136Z,34.14
2019-06-15T15:01:00.638Z,34.03
2019-06-15T15:03:31.098Z,34.08
2019-06-15T15:06:01.597Z,33.87
2019-06-15T15:08:32.045Z,33.91
2019-06-15T15:11:06.463Z,33.88
2019-06-15T15:13:36.581Z,33.79
2019-06-15T15:16:07.314Z,33.97
2019-06-15T15:18:37.735Z,33.89
2019-06-15T15:21:08.323Z,33.79
2019-06-15T15:23:38.831Z,33.82
2019-06-15T15:26:09.452Z,33.07
2019-06-15T15:28:39.921Z,33.70
2019-06-15T15:31:10.446Z,33.47
2019-06-15T15:33:40.896Z,33.54
2019-06-15T15:36:11.399Z,33.45
2019-06-15T15:38:41.847Z,33.35
2019-06-15T15:41:12.405Z,33.29
2019-06-15T15:43:42.901Z,33.24
2019-06-15T15:46:16.220Z,33.36
2019-06-15T15:48:47.045Z,33.32
2019-06-15T15:51:17.728Z,33.23
2019-06-15T15:53:48.245Z,33.26
2019-06-15T15:56:18.696Z,33.25
2019-06-15T15:58:49.153Z,33.10
2019-06-15T16:01:19.609Z,33.18
2019-06-15T16:03:50.125Z,33.02
2019-06-15T16:06:20.583Z,32.86
2019-06-15T16:08:51.105Z,32.82
2019-06-15T16:11:21.560Z,32.78
2019-06-15T16:13:52.147Z,32.91
2019-06-15T16:16:22.598Z,32.97
2019-06-15T16:18:53.098Z,32.98
2019-06-15T16:21:25.895Z,32.99
2019-06-15T16:23:58.278Z,32.88
2019-06-15T16:26:27.941Z,32.89
2019-06-15T16:28:58.481Z,32.90
2019-06-15T16:31:29.429Z,32.81
2019-06-15T16:34:00.021Z,32.84
2019-06-15T16:36:30.534Z,32.81
2019-06-15T16:39:00.985Z,32.71
2019-06-15T16:41:31.488Z,32.71
2019-06-15T16:44:01.971Z,32.60
2019-06-15T16:46:32.457Z,32.63
2019-06-15T16:49:02.917Z,32.59
2019-06-15T16:51:36.139Z,32.58
2019-06-15T16:54:06.717Z,32.52
2019-06-15T16:56:37.176Z,32.40
2019-06-15T16:59:07.673Z,32.34
2019-06-15T17:01:38.227Z,32.23
2019-06-15T17:04:10.279Z,32.24
2019-06-15T17:06:40.959Z,32.15
2019-06-15T17:09:11.453Z,32.08
2019-06-15T17:11:41.915Z,32.01
2019-06-15T17:14:12.388Z,31.95
2019-06-15T17:16:42.779Z,31.88
2019-06-15T17:19:13.237Z,31.75
2019-06-15T17:21:43.643Z,31.75
2019-06-15T17:24:14.139Z,31.71
2019-06-15T17:26:46.657Z,31.58
2019-06-15T17:29:16.679Z,31.48
2019-06-15T17:31:47.148Z,31.36
2019-06-15T17:34:17.715Z,31.28
2019-06-15T17:36:48.135Z,31.16
2019-06-15T17:39:18.596Z,31.13
2019-06-15T17:41:49.075Z,31.06
2019-06-15T17:44:19.527Z,31.04
2019-06-15T17:46:50.036Z,31.00
2019-06-15T17:49:20.525Z,30.93
2019-06-15T17:51:50.988Z,30.80
2019-06-15T17:54:21.499Z,30.74
2019-06-15T17:56:51.964Z,30.65
2019-06-15T17:59:22.569Z,30.55
2019-06-15T18:01:53.115Z,30.45
2019-06-15T18:04:23.568Z,30.37
2019-06-15T18:06:56.791Z,30.26
2019-06-15T18:09:26.403Z,30.13
2019-06-15T18:11:57.247Z,30.05
2019-06-15T18:14:27.751Z,30.05
2019-06-15T18:16:58.387Z,29.98
2019-06-15T18:19:28.783Z,29.88
2019-06-15T18:21:59.244Z,29.70
2019-06-15T18:24:29.752Z,29.70
2019-06-15T18:27:00.200Z,29.65
2019-06-15T18:29:30.705Z,29.61
2019-06-15T18:32:01.241Z,29.57
2019-06-15T18:34:31.680Z,29.49
2019-06-15T18:37:02.235Z,29.47
2019-06-15T18:39:32.677Z,29.47
2019-06-15T18:42:03.200Z,29.45
2019-06-15T18:44:33.725Z,29.44
2019-06-15T18:47:04.173Z,29.43
2019-06-15T18:49:36.261Z,29.42
2019-06-15T18:52:06.815Z,29.39
2019-06-15T18:54:37.474Z,29.36
2019-06-15T18:57:07.931Z,29.35
2019-06-15T18:59:38.401Z,29.33
2019-06-15T19:02:09.143Z,29.30
2019-06-15T19:04:39.605Z,29.33
2019-06-15T19:07:10.129Z,29.36
2019-06-15T19:09:40.600Z,29.40
2019-06-15T19:12:11.205Z,29.35
2019-06-15T19:14:41.761Z,29.36
2019-06-15T19:17:12.266Z,29.35
2019-06-15T19:19:42.736Z,29.33
2019-06-15T19:22:13.244Z,29.37
2019-06-15T19:24:47.314Z,29.17
2019-06-15T19:27:16.194Z,29.07
2019-06-15T19:29:46.784Z,28.98
2019-06-15T19:32:17.421Z,29.09
2019-06-15T19:34:51.112Z,29.10
2019-06-15T19:37:20.204Z,28.93
2019-06-15T19:39:50.669Z,28.83
2019-06-15T19:42:21.168Z,28.83
2019-06-15T19:44:51.665Z,28.82
2019-06-15T19:47:22.161Z,28.74
2019-06-15T19:49:52.625Z,28.77
2019-06-15T19:52:23.173Z,28.78
2019-06-15T19:54:53.622Z,28.69
2019-06-15T19:57:27.179Z,28.66
2019-06-15T19:59:57.699Z,28.61
2019-06-15T20:02:28.224Z,28.48
2019-06-15T20:05:03.407Z,28.30
2019-06-15T20:07:30.883Z,28.30
2019-06-15T20:10:03.278Z,28.33
2019-06-15T20:12:37.435Z,27.66
2019-06-15T20:15:10.003Z,28.32
2019-06-15T20:17:40.544Z,28.30
2019-06-15T20:20:11.567Z,28.23
2019-06-15T20:22:42.069Z,28.19
2019-06-15T20:25:12.828Z,28.03
2019-06-15T20:27:43.333Z,27.89
2019-06-15T20:30:16.835Z,27.91
2019-06-15T20:32:46.385Z,27.76
2019-06-15T20:35:21.084Z,27.66
2019-06-15T20:37:49.163Z,27.55
2019-06-15T20:40:19.636Z,27.46
2019-06-15T20:42:50.145Z,27.48
2019-06-15T20:45:20.710Z,27.39
2019-06-15T20:47:51.215Z,27.31
2019-06-15T20:50:27.868Z,27.37
2019-06-15T20:52:56.453Z,27.33
2019-06-15T20:55:26.652Z,27.24
2019-06-15T20:57:57.232Z,27.22
2019-06-15T21:00:27.796Z,27.14
2019-06-15T21:02:58.314Z,27.07
2019-06-15T21:05:37.278Z,26.94
2019-06-15T21:08:01.077Z,27.01
2019-06-15T21:10:31.596Z,26.89
2019-06-15T21:13:02.051Z,26.94
2019-06-15T21:15:36.870Z,26.97
2019-06-15T21:18:07.514Z,26.98
2019-06-15T21:20:37.989Z,26.93
2019-06-15T21:23:08.493Z,26.89
2019-06-15T21:25:39.062Z,26.81
2019-06-15T21:28:09.554Z,26.74
2019-06-15T21:30:40.018Z,26.70
2019-06-15T21:33:10.528Z,26.70
2019-06-15T21:35:49.130Z,26.66
2019-06-15T21:38:13.408Z,26.42
2019-06-15T21:40:43.967Z,26.53
2019-06-15T21:43:14.496Z,26.55
2019-06-15T21:45:46.290Z,26.26
2019-06-15T21:48:17.173Z,26.53
2019-06-15T21:50:47.631Z,26.45
2019-06-15T21:53:18.140Z,26.47
2019-06-15T21:55:48.589Z,26.44
2019-06-15T21:58:19.099Z,26.44
2019-06-15T22:01:06.279Z,26.47
2019-06-15T22:03:36.970Z,26.48
2019-06-15T22:06:07.379Z,26.50
2019-06-15T22:08:37.876Z,26.49
2019-06-15T22:11:08.432Z,26.50
2019-06-15T22:13:38.930Z,26.39
2019-06-15T22:16:09.469Z,26.48
2019-06-15T22:18:39.984Z,26.52
2019-06-15T22:21:10.475Z,26.52
2019-06-15T22:23:40.967Z,26.54
2019-06-15T22:26:11.422Z,26.59
2019-06-15T22:28:41.920Z,26.58
2019-06-15T22:31:12.400Z,26.58
2019-06-15T22:33:42.886Z,26.62
2019-06-15T22:36:22.306Z,26.62
2019-06-15T22:38:46.162Z,26.59
2019-06-15T22:41:16.842Z,26.54
2019-06-15T22:43:47.321Z,26.59
2019-06-15T22:46:17.806Z,26.60
2019-06-15T22:48:48.271Z,26.60
2019-06-15T22:51:18.859Z,26.62
2019-06-15T22:53:49.314Z,26.63
2019-06-15T22:56:19.828Z,26.58
2019-06-15T22:58:50.319Z,26.56
2019-06-15T23:01:20.778Z,26.62
2019-06-15T23:03:51.248Z,26.64
2019-06-15T23:06:33.895Z,26.66
2019-06-15T23:08:56.332Z,26.58
2019-06-15T23:11:26.657Z,26.51
2019-06-15T23:13:57.690Z,26.51
2019-06-15T23:16:28.328Z,26.10
2019-06-15T23:18:58.793Z,25.88
2019-06-15T23:21:29.249Z,25.81
2019-06-15T23:23:59.752Z,25.98
2019-06-15T23:26:30.260Z,25.89
2019-06-15T23:29:00.760Z,26.03
2019-06-15T23:31:31.315Z,25.79
2019-06-15T23:34:01.833Z,25.76
2019-06-15T23:36:52.011Z,25.68
2019-06-15T23:39:08.088Z,25.79
2019-06-15T23:41:38.626Z,25.73
2019-06-15T23:44:09.113Z,25.73
2019-06-15T23:46:39.615Z,25.84
2019-06-15T23:49:10.056Z,25.81
2019-06-15T23:51:40.551Z,25.70
2019-06-15T23:54:11.025Z,25.76
2019-06-15T23:56:41.481Z,25.72
2019-06-15T23:59:11.959Z,25.75
